createdAt,value
2024-01-06T00:00:18.015Z,97248.03
2024-01-06T00:02:45.056Z,97253.44
2024-01-06T00:05:11.939Z,97249.34
2024-01-06T00:07:38.794Z,97265.09
2024-01-06T00:10:06.277Z,97257.19
2024-01-06T00:12:33.079Z,97261.50
2024-01-06T00:14:59.899Z,97266.34
2024-01-06T00:17:26.641Z,97264.75
2024-01-06T00:19:53.549Z,97253.53
2024-01-06T00:22:20.552Z,97254.97
2024-01-06T00:24:47.829Z,97243.88
2024-01-06T00:27:14.858Z,97241.75
2024-01-06T00:29:41.835Z,97239.03
2024-01-06T00:32:08.657Z,97236.50
2024-01-06T00:34:35.572Z,97235.38
2024-01-06T00:37:02.592Z,97221.88
2024-01-06T00:39:29.368Z,97229.88
2024-01-06T00:41:56.581Z,97238.31
2024-01-06T00:44:23.357Z,97232.75
2024-01-06T00:46:50.226Z,97228.00
2024-01-06T00:49:17.087Z,97225.84
2024-01-06T00:51:44.036Z,97210.34
2024-01-06T00:54:10.816Z,97215.66
2024-01-06T00:56:37.599Z,97212.66
2024-01-06T00:59:04.370Z,97224.25
2024-01-06T01:01:31.167Z,97229.34
2024-01-06T01:03:58.092Z,97223.56
2024-01-06T01:06:25.007Z,97228.31
2024-01-06T01:08:51.856Z,97223.06
2024-01-06T01:11:18.601Z,97219.81
2024-01-06T01:13:45.390Z,97221.06
2024-01-06T01:16:12.273Z,97175.72
2024-01-06T01:18:39.267Z,97201.09
2024-01-06T01:21:06.206Z,97202.09
2024-01-06T01:23:32.976Z,97189.88
2024-01-06T01:25:59.789Z,97187.13
2024-01-06T01:28:26.508Z,97185.19
2024-01-06T01:30:53.766Z,97178.13
2024-01-06T01:33:21.376Z,97182.50
2024-01-06T01:35:48.160Z,97186.22
2024-01-06T01:38:14.905Z,97183.38
2024-01-06T01:40:41.654Z,97179.69
2024-01-06T01:43:17.711Z,97185.31
2024-01-06T01:45:44.729Z,97183.13
2024-01-06T01:48:11.699Z,97174.94
2024-01-06T01:50:38.937Z,97180.28
2024-01-06T01:53:05.699Z,97176.78
2024-01-06T01:55:32.591Z,97172.84
2024-01-06T01:57:59.410Z,97171.78
2024-01-06T02:00:27.722Z,97175.38
2024-01-06T02:02:54.869Z,97177.63
2024-01-06T02:05:21.654Z,97175.59
2024-01-06T02:07:48.905Z,97166.63
2024-01-06T02:10:15.540Z,97164.47
2024-01-06T02:12:42.319Z,97161.91
2024-01-06T02:15:09.168Z,97158.75
2024-01-06T02:17:35.998Z,97149.78
2024-01-06T02:20:02.850Z,97154.53
2024-01-06T02:22:29.617Z,97164.16
2024-01-06T02:24:56.525Z,97140.59
2024-01-06T02:27:23.351Z,97159.22
2024-01-06T02:29:50.082Z,97160.22
2024-01-06T02:32:16.825Z,97152.78
2024-01-06T02:34:43.736Z,97153.16
2024-01-06T02:37:10.643Z,97161.72
2024-01-06T02:39:37.439Z,97159.97
2024-01-06T02:42:04.527Z,97155.72
2024-01-06T02:44:31.270Z,97155.59
2024-01-06T02:46:58.012Z,97147.97
2024-01-06T02:49:24.927Z,97149.81
2024-01-06T02:51:51.749Z,97141.78
2024-01-06T02:54:18.615Z,97134.69
2024-01-06T02:56:45.406Z,97141.28
2024-01-06T02:59:12.257Z,97134.72
2024-01-06T03:01:39.041Z,97134.97
2024-01-06T03:04:05.989Z,97135.28
2024-01-06T03:06:32.867Z,97149.03
2024-01-06T03:08:59.600Z,97130.22
2024-01-06T03:11:26.348Z,97143.78
2024-01-06T03:13:53.122Z,97139.41
2024-01-06T03:16:19.866Z,97142.88
2024-01-06T03:18:48.201Z,97132.22
2024-01-06T03:21:19.342Z,97140.47
2024-01-06T03:23:46.261Z,97128.84
2024-01-06T03:26:13.025Z,97139.44
2024-01-06T03:28:39.764Z,97134.31
2024-01-06T03:31:06.572Z,97132.69
2024-01-06T03:33:33.653Z,97131.13
2024-01-06T03:36:05.749Z,97132.41
2024-01-06T03:38:32.523Z,97146.81
2024-01-06T03:40:59.355Z,97132.88
2024-01-06T03:43:26.097Z,97133.66
2024-01-06T03:45:52.875Z,97134.22
2024-01-06T03:48:19.831Z,97143.22
2024-01-06T03:50:46.748Z,97137.00
2024-01-06T03:53:13.541Z,97139.13
2024-01-06T03:55:41.068Z,97136.09
2024-01-06T03:58:07.835Z,97134.22
2024-01-06T04:00:34.647Z,97134.13
2024-01-06T04:03:01.385Z,97140.47
2024-01-06T04:05:28.184Z,97143.47
2024-01-06T04:07:54.941Z,97148.88
2024-01-06T04:10:21.756Z,97153.19
2024-01-06T04:12:48.573Z,97149.69
2024-01-06T04:15:15.401Z,97160.44
2024-01-06T04:17:42.242Z,97148.38
2024-01-06T04:20:09.543Z,97153.56
2024-01-06T04:22:36.143Z,97161.75
2024-01-06T04:25:02.982Z,97150.03
2024-01-06T04:27:29.781Z,97146.66
2024-01-06T04:29:56.554Z,97140.41
2024-01-06T04:32:23.553Z,97140.41
2024-01-06T04:34:50.379Z,97140.84
2024-01-06T04:37:17.121Z,97134.13
2024-01-06T04:39:43.863Z,97150.53
2024-01-06T04:42:10.647Z,97145.84
2024-01-06T04:44:37.418Z,97134.13
2024-01-06T04:47:04.381Z,97126.66
2024-01-06T04:49:31.168Z,97137.81
2024-01-06T04:51:57.993Z,97144.53
2024-01-06T04:54:24.799Z,97139.22
2024-01-06T04:56:51.558Z,97147.56
2024-01-06T04:59:18.351Z,97147.84
2024-01-06T05:01:45.129Z,97146.50
2024-01-06T05:04:12.011Z,97142.41
2024-01-06T05:06:38.812Z,97132.59
2024-01-06T05:09:05.705Z,97134.00
2024-01-06T05:11:32.446Z,97124.13
2024-01-06T05:13:59.212Z,97139.41
2024-01-06T05:16:26.163Z,97145.50
2024-01-06T05:18:53.013Z,97132.31
2024-01-06T05:21:20.514Z,97137.91
2024-01-06T05:23:47.149Z,97145.66
2024-01-06T05:26:14.963Z,97138.59
2024-01-06T05:28:41.699Z,97131.28
2024-01-06T05:31:08.540Z,97133.78
2024-01-06T05:33:35.395Z,97145.13
2024-01-06T05:36:02.305Z,97129.69
2024-01-06T05:38:29.031Z,97144.25
2024-01-06T05:40:55.782Z,97147.16
2024-01-06T05:43:22.514Z,97151.97
2024-01-06T05:45:49.315Z,97151.31
2024-01-06T05:48:16.224Z,97163.13
2024-01-06T05:50:43.156Z,97158.13
2024-01-06T05:53:10.266Z,97161.00
2024-01-06T05:55:37.179Z,97168.09
2024-01-06T05:58:04.076Z,97157.72
2024-01-06T06:00:32.818Z,97126.56
2024-01-06T06:02:59.870Z,97171.19
2024-01-06T06:05:27.494Z,97176.56
2024-01-06T06:07:54.319Z,97167.56
2024-01-06T06:10:21.716Z,97182.28
2024-01-06T06:12:48.938Z,97174.25
2024-01-06T06:15:15.749Z,97184.94
2024-01-06T06:17:42.550Z,97163.22
2024-01-06T06:20:09.574Z,97175.91
2024-01-06T06:22:36.338Z,97179.78
2024-01-06T06:25:04.761Z,97186.66
2024-01-06T06:27:31.613Z,97171.28
2024-01-06T06:29:58.453Z,97178.25
2024-01-06T06:32:26.353Z,97173.44
2024-01-06T06:34:54.000Z,97176.94
2024-01-06T06:37:20.910Z,97179.53
2024-01-06T06:39:48.004Z,97175.00
2024-01-06T06:42:14.821Z,97169.56
2024-01-06T06:44:41.677Z,97184.34
2024-01-06T06:47:08.411Z,97169.63
2024-01-06T06:49:35.256Z,97168.78
2024-01-06T06:52:02.152Z,97178.03
2024-01-06T06:54:29.961Z,97171.53
2024-01-06T06:56:56.810Z,97158.44
2024-01-06T06:59:23.592Z,97170.88
2024-01-06T07:01:50.385Z,97176.16
2024-01-06T07:04:17.144Z,97160.97
2024-01-06T07:06:43.978Z,97160.81
2024-01-06T07:09:10.808Z,97163.34
2024-01-06T07:11:37.595Z,97176.06
2024-01-06T07:14:04.362Z,97169.38
2024-01-06T07:16:31.166Z,97168.88
2024-01-06T07:18:58.113Z,97161.28
2024-01-06T07:21:24.989Z,97171.34
2024-01-06T07:23:51.867Z,97166.59
2024-01-06T07:26:19.030Z,97167.47
2024-01-06T07:28:45.707Z,97169.19
2024-01-06T07:31:12.548Z,97158.81
2024-01-06T07:33:40.874Z,97146.19
2024-01-06T07:36:07.729Z,97149.28
2024-01-06T07:38:34.498Z,97149.13
2024-01-06T07:41:01.258Z,97161.16
2024-01-06T07:43:28.002Z,97161.72
2024-01-06T07:45:55.102Z,97158.25
2024-01-06T07:48:21.952Z,97164.31
2024-01-06T07:50:48.801Z,97160.41
2024-01-06T07:53:15.541Z,97166.16
2024-01-06T07:55:42.270Z,97166.50
2024-01-06T07:58:09.322Z,97156.72
2024-01-06T08:00:36.131Z,97159.72
2024-01-06T08:03:03.635Z,97167.47
2024-01-06T08:05:30.476Z,97172.97
2024-01-06T08:07:57.243Z,97170.38
2024-01-06T08:10:23.964Z,97174.00
2024-01-06T08:12:50.796Z,97142.47
2024-01-06T08:15:17.598Z,97182.59
2024-01-06T08:17:44.491Z,97182.09
2024-01-06T08:20:11.667Z,97177.53
2024-01-06T08:22:38.477Z,97156.69
2024-01-06T08:25:07.494Z,97178.78
2024-01-06T08:27:35.022Z,97180.47
2024-01-06T08:30:02.783Z,97168.88
2024-01-06T08:32:29.800Z,97179.41
2024-01-06T08:34:58.630Z,97151.16
2024-01-06T08:37:25.643Z,97178.16
2024-01-06T08:39:52.559Z,97185.91
2024-01-06T08:42:19.906Z,97186.09
2024-01-06T08:44:46.733Z,97183.19
2024-01-06T08:47:13.536Z,97184.72
2024-01-06T08:49:40.450Z,97182.13
2024-01-06T08:52:07.329Z,97183.69
2024-01-06T08:54:34.222Z,97193.69
2024-01-06T08:57:01.004Z,97200.19
2024-01-06T08:59:28.206Z,97210.84
2024-01-06T09:01:54.946Z,97212.56
2024-01-06T09:04:21.823Z,97218.31
2024-01-06T09:06:48.753Z,97222.22
2024-01-06T09:09:15.572Z,97215.06
2024-01-06T09:11:43.346Z,97217.09
2024-01-06T09:14:12.415Z,97187.84
2024-01-06T09:16:39.403Z,97229.69
2024-01-06T09:19:06.443Z,97218.28
2024-01-06T09:21:33.282Z,97216.47
2024-01-06T09:24:01.618Z,97220.91
2024-01-06T09:26:28.447Z,97203.44
2024-01-06T09:28:55.191Z,97210.88
2024-01-06T09:31:22.332Z,97213.16
2024-01-06T09:33:51.006Z,97222.25
2024-01-06T09:36:17.857Z,97199.19
2024-01-06T09:38:44.629Z,97196.81
2024-01-06T09:41:11.815Z,97201.03
2024-01-06T09:43:39.682Z,97201.75
2024-01-06T09:46:32.842Z,97193.22
2024-01-06T09:49:00.015Z,97195.63
2024-01-06T09:51:28.091Z,97199.56
2024-01-06T09:53:59.809Z,97196.25
2024-01-06T09:56:29.201Z,97207.69
2024-01-06T09:58:57.322Z,97209.59
2024-01-06T10:01:24.724Z,97197.25
2024-01-06T10:03:51.800Z,97197.25
2024-01-06T10:06:19.656Z,97187.22
2024-01-06T10:08:51.216Z,97183.03
2024-01-06T10:11:18.453Z,97163.00
2024-01-06T10:13:45.365Z,97171.88
2024-01-06T10:16:12.095Z,97172.72
2024-01-06T10:18:39.979Z,97168.88
2024-01-06T10:21:07.572Z,97183.25
2024-01-06T10:23:34.949Z,97172.38
2024-01-06T10:26:04.326Z,97179.16
2024-01-06T10:28:32.436Z,97175.38
2024-01-06T10:31:00.137Z,97184.69
2024-01-06T10:33:27.703Z,97191.53
2024-01-06T10:35:57.644Z,97198.66
2024-01-06T10:38:26.524Z,97189.41
2024-01-06T10:41:08.614Z,97193.88
2024-01-06T10:43:38.561Z,97188.28
2024-01-06T10:46:06.172Z,97177.72
2024-01-06T10:48:34.649Z,97162.78
2024-01-06T10:51:01.686Z,97156.13
2024-01-06T10:53:28.543Z,97172.09
2024-01-06T10:55:56.835Z,97172.22
2024-01-06T10:58:23.767Z,97147.25
2024-01-06T11:00:50.919Z,97173.75
2024-01-06T11:03:18.780Z,97176.19
2024-01-06T11:05:46.185Z,97167.34
2024-01-06T11:08:13.483Z,97145.91
2024-01-06T11:10:41.162Z,97141.78
2024-01-06T11:13:13.122Z,97144.44
2024-01-06T11:15:50.805Z,97141.41
2024-01-06T11:18:35.699Z,97144.41
2024-01-06T11:21:11.581Z,97145.38
2024-01-06T11:23:39.860Z,97137.84
2024-01-06T11:26:08.059Z,97140.34
2024-01-06T11:28:46.467Z,97123.66
2024-01-06T11:31:13.906Z,97088.72
2024-01-06T11:33:50.267Z,97125.97
2024-01-06T11:36:17.311Z,97126.81
2024-01-06T11:38:47.534Z,97128.97
2024-01-06T11:41:49.237Z,97123.34
2024-01-06T11:44:19.917Z,97122.13
2024-01-06T11:46:46.911Z,97088.38
2024-01-06T11:49:17.452Z,97119.25
2024-01-06T11:51:44.469Z,97115.41
2024-01-06T11:54:11.359Z,97116.25
2024-01-06T11:56:38.131Z,97115.41
2024-01-06T11:59:05.274Z,97117.56
2024-01-06T12:01:39.086Z,97110.44
2024-01-06T12:04:08.963Z,97107.31
2024-01-06T12:06:35.808Z,97120.88
2024-01-06T12:09:16.130Z,97103.97
2024-01-06T12:11:46.297Z,97108.47
2024-01-06T12:14:13.188Z,97110.00
2024-01-06T12:16:40.076Z,97108.72
2024-01-06T12:19:07.203Z,97105.94
2024-01-06T12:21:38.818Z,97100.94
2024-01-06T12:24:21.633Z,97112.84
2024-01-06T12:26:49.085Z,97101.63
2024-01-06T12:29:17.606Z,97066.88
2024-01-06T12:31:45.923Z,97099.41
2024-01-06T12:34:13.037Z,97099.97
2024-01-06T12:36:41.523Z,97098.78
2024-01-06T12:39:14.407Z,97094.00
2024-01-06T12:41:45.156Z,97106.59
2024-01-06T12:44:12.064Z,97105.00
2024-01-06T12:46:38.852Z,97103.75
2024-01-06T12:49:05.826Z,97103.75
2024-01-06T12:51:32.739Z,97101.22
2024-01-06T12:53:59.568Z,97102.66
2024-01-06T12:56:26.329Z,97091.56
2024-01-06T12:58:54.266Z,97097.75
2024-01-06T13:01:21.200Z,97101.84
2024-01-06T13:03:48.149Z,97096.94
2024-01-06T13:06:17.088Z,97099.56
2024-01-06T13:08:44.351Z,97104.41
2024-01-06T13:11:11.152Z,97097.75
2024-01-06T13:13:38.063Z,97082.31
2024-01-06T13:16:06.486Z,97102.72
2024-01-06T13:18:33.517Z,97099.03
2024-01-06T13:21:00.502Z,97092.75
2024-01-06T13:23:27.241Z,97081.28
2024-01-06T13:25:55.105Z,97114.63
2024-01-06T13:28:21.837Z,97109.06
2024-01-06T13:30:48.684Z,97115.91
2024-01-06T13:33:15.697Z,97119.91
2024-01-06T13:35:42.585Z,97111.28
2024-01-06T13:38:10.278Z,97128.84
2024-01-06T13:40:37.188Z,97121.47
2024-01-06T13:43:06.184Z,97125.38
2024-01-06T13:45:33.225Z,97123.97
2024-01-06T13:48:00.358Z,97118.09
2024-01-06T13:50:26.950Z,97126.28
2024-01-06T13:52:53.941Z,97119.38
2024-01-06T13:55:20.662Z,97125.56
2024-01-06T13:57:48.006Z,97129.56
2024-01-06T14:00:20.888Z,97109.88
2024-01-06T14:02:48.489Z,97129.31
2024-01-06T14:05:15.767Z,97131.78
2024-01-06T14:07:46.490Z,97134.09
2024-01-06T14:10:16.816Z,97139.00
2024-01-06T14:12:43.936Z,97138.53
2024-01-06T14:15:11.079Z,97130.63
2024-01-06T14:17:38.864Z,97144.63
2024-01-06T14:20:06.741Z,97149.22
2024-01-06T14:22:33.643Z,97160.34
2024-01-06T14:25:03.802Z,97146.06
2024-01-06T14:27:33.362Z,97143.53
2024-01-06T14:30:00.138Z,97166.09
2024-01-06T14:32:27.060Z,97152.94
2024-01-06T14:34:54.094Z,97167.09
2024-01-06T14:37:21.160Z,97173.28
2024-01-06T14:39:47.999Z,97170.41
2024-01-06T14:42:15.034Z,97183.84
2024-01-06T14:44:42.053Z,97178.25
2024-01-06T14:47:08.829Z,97189.28
2024-01-06T14:49:35.784Z,97182.06
2024-01-06T14:52:03.405Z,97182.97
2024-01-06T14:54:32.390Z,97192.78
2024-01-06T14:56:59.901Z,97183.63
2024-01-06T14:59:26.863Z,97193.44
2024-01-06T15:01:53.919Z,97187.97
2024-01-06T15:04:21.482Z,97202.97
2024-01-06T15:06:49.498Z,97185.28
2024-01-06T15:09:18.478Z,97201.56
2024-01-06T15:11:45.289Z,97205.34
2024-01-06T15:14:12.094Z,97203.59
2024-01-06T15:16:40.101Z,97207.88
2024-01-06T15:19:09.155Z,97203.53
2024-01-06T15:21:38.030Z,97207.88
2024-01-06T15:24:05.304Z,97178.81
2024-01-06T15:26:32.121Z,97208.22
2024-01-06T15:29:01.764Z,97204.94
2024-01-06T15:31:30.935Z,97200.22
2024-01-06T15:33:58.010Z,97197.13
2024-01-06T15:36:24.976Z,97208.38
2024-01-06T15:38:51.877Z,97179.91
2024-01-06T15:41:18.639Z,97205.91
2024-01-06T15:43:45.477Z,97196.75
2024-01-06T15:46:12.777Z,97196.66
2024-01-06T15:48:39.844Z,97194.09
2024-01-06T15:51:06.672Z,97212.72
2024-01-06T15:53:34.702Z,97200.16
2024-01-06T15:56:01.931Z,97166.69
2024-01-06T15:58:28.529Z,97202.25
2024-01-06T16:00:55.336Z,97207.00
2024-01-06T16:03:22.204Z,97199.78
2024-01-06T16:05:49.065Z,97197.59
2024-01-06T16:08:15.889Z,97197.53
2024-01-06T16:10:42.768Z,97177.50
2024-01-06T16:13:09.561Z,97210.94
2024-01-06T16:15:36.482Z,97220.81
2024-01-06T16:18:03.585Z,97215.25
2024-01-06T16:20:30.355Z,97221.69
2024-01-06T16:22:57.762Z,97212.25
2024-01-06T16:25:24.871Z,97211.28
2024-01-06T16:27:51.792Z,97214.63
2024-01-06T16:30:19.396Z,97207.81
2024-01-06T16:32:46.357Z,97214.13
2024-01-06T16:35:13.158Z,97223.28
2024-01-06T16:37:40.977Z,97204.22
2024-01-06T16:40:11.532Z,97159.28
2024-01-06T16:42:39.562Z,97222.13
2024-01-06T16:45:06.804Z,97220.06
2024-01-06T16:47:33.696Z,97229.16
2024-01-06T16:50:00.715Z,97185.69
2024-01-06T16:52:27.491Z,97230.50
2024-01-06T16:54:54.306Z,97226.34
2024-01-06T16:57:22.249Z,97226.94
2024-01-06T16:59:49.244Z,97227.19
2024-01-06T17:02:16.167Z,97220.56
2024-01-06T17:04:43.240Z,97215.38
2024-01-06T17:07:10.126Z,97215.34
2024-01-06T17:09:37.504Z,97200.97
2024-01-06T17:12:04.756Z,97223.69
2024-01-06T17:14:31.391Z,97227.50
2024-01-06T17:16:58.792Z,97215.56
2024-01-06T17:19:25.788Z,97227.84
2024-01-06T17:21:52.813Z,97209.41
2024-01-06T17:24:19.634Z,97217.56
2024-01-06T17:26:46.872Z,97209.63
2024-01-06T17:29:13.469Z,97215.28
2024-01-06T17:31:40.531Z,97217.00
2024-01-06T17:34:07.659Z,97219.38
2024-01-06T17:36:34.998Z,97222.72
2024-01-06T17:39:01.776Z,97220.22
2024-01-06T17:41:33.643Z,97221.63
2024-01-06T17:44:06.235Z,97225.94
2024-01-06T17:46:33.090Z,97201.25
2024-01-06T17:49:00.137Z,97213.47
2024-01-06T17:51:29.876Z,97213.72
2024-01-06T17:53:56.924Z,97210.59
2024-01-06T17:56:23.858Z,97212.50
2024-01-06T17:58:50.888Z,97216.50
2024-01-06T18:01:17.800Z,97219.06
2024-01-06T18:03:45.232Z,97221.47
2024-01-06T18:06:12.546Z,97206.34
2024-01-06T18:08:39.874Z,97230.13
2024-01-06T18:11:07.817Z,97227.72
2024-01-06T18:13:34.886Z,97227.66
2024-01-06T18:16:01.971Z,97227.66
2024-01-06T18:18:29.696Z,97214.47
2024-01-06T18:20:58.052Z,97229.59
2024-01-06T18:23:26.036Z,97224.06
2024-01-06T18:25:53.410Z,97238.00
2024-01-06T18:28:25.140Z,97239.34
2024-01-06T18:30:54.825Z,97175.66
2024-01-06T18:33:22.024Z,97244.66
2024-01-06T18:35:48.886Z,97241.16
2024-01-06T18:38:15.770Z,97234.59
2024-01-06T18:40:42.759Z,97242.41
2024-01-06T18:43:09.564Z,97235.41
2024-01-06T18:45:36.343Z,97240.56
2024-01-06T18:48:03.281Z,97237.94
2024-01-06T18:50:30.080Z,97240.91
2024-01-06T18:52:56.846Z,97213.59
2024-01-06T18:55:23.749Z,97231.50
2024-01-06T18:57:50.705Z,97236.59
2024-01-06T19:00:19.994Z,97237.53
2024-01-06T19:02:49.136Z,97237.47
2024-01-06T19:05:16.353Z,97234.97
2024-01-06T19:07:46.699Z,97240.50
2024-01-06T19:10:14.486Z,97239.09
2024-01-06T19:12:41.437Z,97231.00
2024-01-06T19:15:08.835Z,97226.53
2024-01-06T19:17:35.697Z,97229.69
2024-01-06T19:20:02.624Z,97235.00
2024-01-06T19:22:29.434Z,97233.09
2024-01-06T19:24:56.270Z,97215.25
2024-01-06T19:27:23.328Z,97222.84
2024-01-06T19:29:50.134Z,97228.00
2024-01-06T19:32:18.973Z,97216.47
2024-01-06T19:34:46.947Z,97224.13
2024-01-06T19:37:13.813Z,97221.00
2024-01-06T19:39:40.716Z,97221.84
2024-01-06T19:42:08.230Z,97227.56
2024-01-06T19:44:35.164Z,97221.09
2024-01-06T19:47:02.083Z,97214.00
2024-01-06T19:49:29.299Z,97214.50
2024-01-06T19:51:56.320Z,97211.03
2024-01-06T19:54:23.120Z,97212.97
2024-01-06T19:56:50.397Z,97222.81
2024-01-06T19:59:17.142Z,97217.66
2024-01-06T20:01:43.957Z,97220.81
2024-01-06T20:04:10.962Z,97217.25
2024-01-06T20:06:37.933Z,97218.22
2024-01-06T20:09:07.591Z,97221.75
2024-01-06T20:11:34.356Z,97213.31
2024-01-06T20:14:01.138Z,97204.09
2024-01-06T20:16:27.929Z,97205.34
2024-01-06T20:18:54.821Z,97189.88
2024-01-06T20:21:21.834Z,97207.47
2024-01-06T20:23:48.733Z,97203.03
2024-01-06T20:26:17.162Z,97197.13
2024-01-06T20:28:46.715Z,97202.56
2024-01-06T20:31:14.931Z,97200.03
2024-01-06T20:33:41.904Z,97196.09
2024-01-06T20:36:11.310Z,97183.00
2024-01-06T20:38:38.161Z,97186.69
2024-01-06T20:41:07.318Z,97186.69
2024-01-06T20:43:34.070Z,97183.78
2024-01-06T20:46:00.859Z,97191.13
2024-01-06T20:48:27.899Z,97195.13
2024-01-06T20:50:54.660Z,97190.75
2024-01-06T20:53:21.549Z,97193.19
2024-01-06T20:55:48.432Z,97184.50
2024-01-06T20:58:15.220Z,97178.22
2024-01-06T21:00:42.072Z,97184.19
2024-01-06T21:03:08.856Z,97183.06
2024-01-06T21:05:35.597Z,97177.53
2024-01-06T21:08:02.387Z,97166.97
2024-01-06T21:10:29.116Z,97161.91
2024-01-06T21:12:55.940Z,97176.19
2024-01-06T21:15:23.805Z,97167.31
2024-01-06T21:17:50.675Z,97177.88
2024-01-06T21:20:17.488Z,97171.13
2024-01-06T21:22:44.256Z,97182.75
2024-01-06T21:25:11.133Z,97162.16
2024-01-06T21:27:38.054Z,97171.56
2024-01-06T21:30:06.695Z,97170.25
2024-01-06T21:32:34.646Z,97180.66
2024-01-06T21:35:03.948Z,97182.16
2024-01-06T21:37:30.916Z,97175.47
2024-01-06T21:39:58.734Z,97180.22
2024-01-06T21:42:25.682Z,97169.28
2024-01-06T21:44:52.669Z,97169.34
2024-01-06T21:47:19.484Z,97166.19
2024-01-06T21:49:46.528Z,97165.84
2024-01-06T21:52:13.550Z,97171.22
2024-01-06T21:54:40.448Z,97164.41
2024-01-06T21:57:07.236Z,97176.16
2024-01-06T21:59:34.743Z,97152.84
2024-01-06T22:02:01.607Z,97163.50
2024-01-06T22:04:28.488Z,97161.84
2024-01-06T22:06:55.340Z,97157.59
2024-01-06T22:09:22.529Z,97155.34
2024-01-06T22:11:50.290Z,97151.59
2024-01-06T22:14:17.101Z,97156.16
2024-01-06T22:16:43.870Z,97144.53
2024-01-06T22:19:13.691Z,97136.41
2024-01-06T22:21:42.099Z,97144.72
2024-01-06T22:24:09.107Z,97137.09
2024-01-06T22:26:36.946Z,97145.72
2024-01-06T22:29:04.613Z,97149.69
2024-01-06T22:31:32.198Z,97153.38
2024-01-06T22:34:00.144Z,97156.94
2024-01-06T22:36:27.127Z,97151.00
2024-01-06T22:38:56.131Z,97144.44
2024-01-06T22:41:23.961Z,97142.66
2024-01-06T22:43:50.833Z,97118.41
2024-01-06T22:46:17.884Z,97143.25
2024-01-06T22:48:44.958Z,97149.03
2024-01-06T22:51:11.884Z,97130.75
2024-01-06T22:53:38.707Z,97130.22
2024-01-06T22:56:05.543Z,97139.53
2024-01-06T22:58:34.285Z,97129.28
2024-01-06T23:01:01.397Z,97129.25
2024-01-06T23:03:28.586Z,97124.47
2024-01-06T23:05:55.475Z,97120.84
2024-01-06T23:08:22.380Z,97114.50
2024-01-06T23:10:49.864Z,97113.19
2024-01-06T23:13:16.677Z,97105.00
2024-01-06T23:15:44.758Z,97121.34
2024-01-06T23:18:11.867Z,97117.66
2024-01-06T23:20:38.703Z,97109.25
2024-01-06T23:23:05.494Z,97102.44
2024-01-06T23:25:32.934Z,97111.34
2024-01-06T23:27:59.821Z,97104.38
2024-01-06T23:30:26.715Z,97094.41
2024-01-06T23:32:53.862Z,97104.72
2024-01-06T23:35:20.660Z,97098.72
2024-01-06T23:37:51.743Z,97099.94
2024-01-06T23:40:18.877Z,97102.44
2024-01-06T23:42:45.960Z,97101.84
2024-01-06T23:45:12.796Z,97092.28
2024-01-06T23:47:39.578Z,97083.38
2024-01-06T23:50:07.545Z,97091.59
2024-01-06T23:52:34.436Z,97065.69
2024-01-06T23:55:01.502Z,97098.16
2024-01-06T23:57:28.323Z,97096.50
2024-01-06T23:59:55.129Z,97092.06
